createdAt,value
2018-05-16T00:01:58.309Z,42.69
2018-05-16T00:04:24.428Z,42.59
2018-05-16T00:06:50.692Z,42.56
2018-05-16T00:09:16.912Z,42.56
2018-05-16T00:11:43.383Z,42.75
2018-05-16T00:14:09.543Z,43.25
2018-05-16T00:16:35.713Z,43.29
2018-05-16T00:19:01.933Z,43.15
2018-05-16T00:21:28.202Z,43.09
2018-05-16T00:23:54.322Z,42.79
2018-05-16T00:26:20.454Z,43.05
2018-05-16T00:28:46.604Z,42.88
2018-05-16T00:31:12.741Z,42.89
2018-05-16T00:33:38.929Z,42.80
2018-05-16T00:36:05.072Z,42.79
2018-05-16T00:38:31.481Z,42.75
2018-05-16T00:40:57.769Z,42.58
2018-05-16T00:43:23.909Z,42.58
2018-05-16T00:45:50.376Z,42.34
2018-05-16T00:48:16.541Z,42.29
2018-05-16T00:50:54.942Z,42.33
2018-05-16T00:53:21.113Z,42.31
2018-05-16T00:55:47.569Z,42.24
2018-05-16T00:58:13.836Z,42.24
2018-05-16T01:00:39.970Z,42.25
2018-05-16T01:03:06.102Z,42.17
2018-05-16T01:05:32.264Z,42.27
2018-05-16T01:07:58.404Z,42.24
2018-05-16T01:10:24.565Z,42.25
2018-05-16T01:12:50.966Z,42.21
2018-05-16T01:15:17.124Z,42.18
2018-05-16T01:17:43.266Z,42.52
2018-05-16T01:20:09.556Z,42.62
2018-05-16T01:22:35.691Z,42.60
2018-05-16T01:25:01.825Z,42.65
2018-05-16T01:27:28.088Z,42.64
2018-05-16T01:29:54.228Z,42.66
2018-05-16T01:32:20.396Z,42.63
2018-05-16T01:34:46.526Z,42.58
2018-05-16T01:37:12.735Z,42.55
2018-05-16T01:39:38.865Z,42.50
2018-05-16T01:42:05.018Z,42.51
2018-05-16T01:44:31.297Z,42.70
2018-05-16T01:46:57.886Z,42.65
2018-05-16T01:49:24.287Z,42.59
2018-05-16T01:51:50.424Z,42.59
2018-05-16T01:54:16.589Z,42.60
2018-05-16T01:56:42.713Z,42.67
2018-05-16T01:59:08.865Z,42.67
2018-05-16T02:01:35.074Z,42.68
2018-05-16T02:04:01.248Z,42.62
2018-05-16T02:06:27.382Z,42.59
2018-05-16T02:08:53.541Z,42.78
2018-05-16T02:11:19.670Z,42.78
2018-05-16T02:13:45.841Z,42.78
2018-05-16T02:16:11.997Z,42.74
2018-05-16T02:18:38.405Z,42.79
2018-05-16T02:21:04.836Z,43.09
2018-05-16T02:23:31.028Z,43.15
2018-05-16T02:25:57.162Z,42.96
2018-05-16T02:28:23.297Z,42.85
2018-05-16T02:30:49.461Z,42.79
2018-05-16T02:33:15.609Z,42.73
2018-05-16T02:35:41.791Z,42.83
2018-05-16T02:38:08.233Z,42.95
2018-05-16T02:40:34.399Z,42.98
2018-05-16T02:43:00.536Z,43.08
2018-05-16T02:45:27.018Z,43.21
2018-05-16T02:47:53.149Z,43.07
2018-05-16T02:50:19.343Z,42.99
2018-05-16T02:52:45.805Z,42.96
2018-05-16T02:55:11.946Z,42.92
2018-05-16T02:57:38.333Z,43.11
2018-05-16T03:00:04.799Z,43.02
2018-05-16T03:02:31.014Z,43.09
2018-05-16T03:04:57.150Z,43.15
2018-05-16T03:07:23.281Z,43.17
2018-05-16T03:09:56.484Z,43.19
2018-05-16T03:12:22.642Z,43.33
2018-05-16T03:14:48.806Z,43.38
2018-05-16T03:17:14.971Z,43.71
2018-05-16T03:19:41.204Z,44.17
2018-05-16T03:22:07.604Z,44.28
2018-05-16T03:24:33.762Z,44.33
2018-05-16T03:26:59.907Z,44.64
2018-05-16T03:29:26.395Z,44.65
2018-05-16T03:31:52.930Z,44.67
2018-05-16T03:34:19.507Z,44.56
2018-05-16T03:36:45.992Z,44.45
2018-05-16T03:39:12.530Z,44.42
2018-05-16T03:41:39.063Z,44.32
2018-05-16T03:44:05.595Z,44.40
2018-05-16T03:46:32.020Z,44.32
2018-05-16T03:48:58.573Z,44.17
2018-05-16T03:51:25.078Z,44.29
2018-05-16T03:53:51.540Z,44.13
2018-05-16T03:56:17.807Z,44.07
2018-05-16T03:58:56.504Z,44.38
2018-05-16T04:01:34.798Z,44.21
2018-05-16T04:04:13.065Z,44.00
2018-05-16T04:06:39.239Z,43.93
2018-05-16T04:09:05.373Z,43.93
2018-05-16T04:11:31.506Z,44.02
2018-05-16T04:13:58.029Z,43.92
2018-05-16T04:16:24.156Z,43.88
2018-05-16T04:18:50.302Z,43.90
2018-05-16T04:21:16.465Z,43.97
2018-05-16T04:23:42.610Z,43.95
2018-05-16T04:26:08.777Z,44.15
2018-05-16T04:28:35.163Z,44.24
2018-05-16T04:31:01.625Z,44.37
2018-05-16T04:33:27.843Z,44.46
2018-05-16T04:35:54.072Z,44.43
2018-05-16T04:38:20.342Z,44.56
2018-05-16T04:40:46.670Z,44.54
2018-05-16T04:43:12.860Z,44.39
2018-05-16T04:45:39.017Z,44.40
2018-05-16T04:48:05.242Z,44.36
2018-05-16T04:50:31.545Z,44.30
2018-05-16T04:52:57.718Z,44.16
2018-05-16T04:55:23.834Z,44.13
2018-05-16T04:57:50.011Z,43.94
2018-05-16T05:00:16.137Z,43.85
2018-05-16T05:02:42.894Z,43.89
2018-05-16T05:05:09.032Z,44.46
2018-05-16T05:07:35.397Z,44.90
2018-05-16T05:10:01.924Z,44.97
2018-05-16T05:12:28.076Z,45.06
2018-05-16T05:14:54.209Z,45.30
2018-05-16T05:17:20.393Z,45.35
2018-05-16T05:19:46.629Z,45.39
2018-05-16T05:22:12.714Z,45.19
2018-05-16T05:24:38.879Z,45.00
2018-05-16T05:27:05.023Z,45.28
2018-05-16T05:29:31.199Z,45.18
2018-05-16T05:31:57.343Z,45.26
2018-05-16T05:34:23.897Z,45.27
2018-05-16T05:36:50.045Z,45.25
2018-05-16T05:39:16.201Z,45.23
2018-05-16T05:41:42.461Z,45.10
2018-05-16T05:44:08.655Z,45.21
2018-05-16T05:46:34.827Z,45.15
2018-05-16T05:49:01.002Z,45.08
2018-05-16T05:51:27.210Z,45.05
2018-05-16T05:53:53.361Z,45.16
2018-05-16T05:56:19.957Z,45.07
2018-05-16T05:58:46.196Z,45.01
2018-05-16T06:01:12.351Z,44.85
2018-05-16T06:03:38.519Z,44.72
2018-05-16T06:06:04.729Z,44.58
2018-05-16T06:08:31.076Z,44.27
2018-05-16T06:10:57.657Z,44.00
2018-05-16T06:13:23.862Z,43.77
2018-05-16T06:15:50.015Z,43.64
2018-05-16T06:18:16.308Z,43.55
2018-05-16T06:20:42.444Z,43.72
2018-05-16T06:23:08.594Z,43.75
2018-05-16T06:25:35.101Z,43.65
2018-05-16T06:28:01.254Z,43.58
2018-05-16T06:30:27.398Z,43.56
2018-05-16T06:32:53.679Z,43.41
2018-05-16T06:35:19.844Z,43.28
2018-05-16T06:37:46.218Z,43.24
2018-05-16T06:40:12.782Z,43.23
2018-05-16T06:42:38.948Z,43.10
2018-05-16T06:45:05.083Z,42.99
2018-05-16T06:47:31.524Z,42.92
2018-05-16T06:49:57.696Z,42.79
2018-05-16T06:52:23.849Z,42.67
2018-05-16T06:54:50.165Z,42.59
2018-05-16T06:57:16.351Z,42.45
2018-05-16T06:59:42.510Z,42.26
2018-05-16T07:02:08.723Z,42.14
2018-05-16T07:04:34.862Z,42.06
2018-05-16T07:07:01.025Z,41.96
2018-05-16T07:09:27.172Z,41.89
2018-05-16T07:11:53.702Z,41.79
2018-05-16T07:14:19.833Z,41.79
2018-05-16T07:16:45.982Z,41.85
2018-05-16T07:19:12.157Z,41.82
2018-05-16T07:21:38.527Z,41.85
2018-05-16T07:24:04.700Z,41.87
2018-05-16T07:26:30.871Z,41.86
2018-05-16T07:28:57.150Z,41.86
2018-05-16T07:31:23.534Z,41.82
2018-05-16T07:33:49.675Z,41.72
2018-05-16T07:36:15.846Z,41.53
2018-05-16T07:38:42.313Z,41.50
2018-05-16T07:41:08.785Z,41.41
2018-05-16T07:43:35.128Z,41.42
2018-05-16T07:46:01.277Z,41.40
2018-05-16T07:48:27.582Z,41.31
2018-05-16T07:50:53.971Z,41.50
2018-05-16T07:53:20.745Z,41.44
2018-05-16T07:55:46.986Z,41.38
2018-05-16T07:58:13.122Z,41.39
2018-05-16T08:00:39.597Z,41.47
2018-05-16T08:03:05.747Z,41.47
2018-05-16T08:05:31.909Z,41.44
2018-05-16T08:07:58.384Z,41.44
2018-05-16T08:10:24.617Z,41.38
2018-05-16T08:12:51.128Z,41.38
2018-05-16T08:15:17.332Z,41.35
2018-05-16T08:17:43.476Z,41.26
2018-05-16T08:20:09.857Z,41.27
2018-05-16T08:22:36.030Z,41.27
2018-05-16T08:25:02.181Z,41.26
2018-05-16T08:27:28.341Z,41.25
2018-05-16T08:29:54.468Z,41.10
2018-05-16T08:32:20.646Z,41.09
2018-05-16T08:34:46.771Z,41.15
2018-05-16T08:37:20.040Z,41.15
2018-05-16T08:39:46.170Z,41.17
2018-05-16T08:42:12.392Z,41.16
2018-05-16T08:44:38.567Z,41.20
2018-05-16T08:47:04.702Z,41.23
2018-05-16T08:49:30.905Z,41.19
2018-05-16T08:51:57.041Z,41.18
2018-05-16T08:54:23.199Z,41.23
2018-05-16T08:56:49.337Z,41.20
2018-05-16T08:59:15.486Z,41.12
2018-05-16T09:01:41.755Z,41.06
2018-05-16T09:04:07.898Z,41.11
2018-05-16T09:06:34.031Z,41.03
2018-05-16T09:09:00.336Z,41.01
2018-05-16T09:11:26.481Z,41.01
2018-05-16T09:13:52.888Z,40.99
2018-05-16T09:16:19.109Z,40.97
2018-05-16T09:18:45.258Z,40.94
2018-05-16T09:21:12.087Z,40.91
2018-05-16T09:23:38.226Z,40.88
2018-05-16T09:26:04.357Z,40.84
2018-05-16T09:28:30.579Z,40.85
2018-05-16T09:30:56.717Z,40.83
2018-05-16T09:33:22.862Z,40.79
2018-05-16T09:35:49.028Z,40.70
2018-05-16T09:38:15.175Z,40.63
2018-05-16T09:40:41.606Z,40.65
2018-05-16T09:43:07.849Z,40.56
2018-05-16T09:45:34.247Z,40.49
2018-05-16T09:48:00.396Z,40.51
2018-05-16T09:50:26.588Z,40.38
2018-05-16T09:52:52.769Z,40.38
2018-05-16T09:55:18.901Z,40.24
2018-05-16T09:57:45.067Z,40.29
2018-05-16T10:00:11.301Z,40.27
2018-05-16T10:02:37.516Z,40.22
2018-05-16T10:05:03.722Z,40.14
2018-05-16T10:07:29.871Z,40.05
2018-05-16T10:09:56.037Z,40.02
2018-05-16T10:12:22.230Z,39.95
2018-05-16T10:14:48.373Z,39.88
2018-05-16T10:17:14.517Z,39.85
2018-05-16T10:19:40.691Z,39.83
2018-05-16T10:22:06.847Z,39.74
2018-05-16T10:24:34.203Z,39.89
2018-05-16T10:27:00.610Z,40.29
2018-05-16T10:29:26.783Z,40.63
2018-05-16T10:31:53.005Z,40.32
2018-05-16T10:34:19.175Z,39.88
2018-05-16T10:36:45.330Z,39.66
2018-05-16T10:39:11.516Z,39.49
2018-05-16T10:41:38.225Z,39.55
2018-05-16T10:44:04.415Z,39.35
2018-05-16T10:46:30.605Z,39.32
2018-05-16T10:48:56.813Z,39.43
2018-05-16T10:51:22.991Z,39.69
2018-05-16T10:53:49.160Z,39.74
2018-05-16T10:56:15.327Z,39.70
2018-05-16T10:58:41.537Z,39.68
2018-05-16T11:01:07.951Z,39.64
2018-05-16T11:03:34.090Z,39.61
2018-05-16T11:06:00.267Z,39.21
2018-05-16T11:08:26.458Z,39.06
2018-05-16T11:10:52.787Z,38.85
2018-05-16T11:13:19.831Z,39.00
2018-05-16T11:15:46.140Z,39.11
2018-05-16T11:18:12.405Z,39.04
2018-05-16T11:20:38.798Z,38.99
2018-05-16T11:23:05.233Z,38.70
2018-05-16T11:25:31.398Z,38.48
2018-05-16T11:27:57.588Z,38.78
2018-05-16T11:30:23.748Z,38.60
2018-05-16T11:32:49.883Z,38.58
2018-05-16T11:35:16.053Z,38.37
2018-05-16T11:37:42.329Z,38.30
2018-05-16T11:40:08.593Z,38.17
2018-05-16T11:42:34.732Z,38.06
2018-05-16T11:45:00.880Z,37.95
2018-05-16T11:47:27.045Z,37.96
2018-05-16T11:49:53.213Z,37.85
2018-05-16T11:52:19.414Z,37.73
2018-05-16T11:54:45.550Z,37.50
2018-05-16T11:57:11.837Z,37.44
2018-05-16T11:59:38.110Z,37.41
2018-05-16T12:02:04.258Z,37.42
2018-05-16T12:04:30.392Z,37.47
2018-05-16T12:06:56.618Z,37.34
2018-05-16T12:09:22.762Z,37.19
2018-05-16T12:11:49.179Z,37.19
2018-05-16T12:14:15.363Z,37.11
2018-05-16T12:16:41.694Z,37.12
2018-05-16T12:19:07.860Z,37.06
2018-05-16T12:21:34.087Z,37.03
2018-05-16T12:24:00.294Z,37.08
2018-05-16T12:26:26.446Z,37.00
2018-05-16T12:28:52.981Z,36.91
2018-05-16T12:31:19.260Z,36.96
2018-05-16T12:33:45.397Z,36.82
2018-05-16T12:36:11.585Z,36.86
2018-05-16T12:38:37.976Z,36.79
2018-05-16T12:41:04.470Z,36.83
2018-05-16T12:43:31.033Z,36.76
2018-05-16T12:45:57.221Z,36.60
2018-05-16T12:48:23.422Z,36.54
2018-05-16T12:50:49.705Z,36.47
2018-05-16T12:53:15.890Z,36.54
2018-05-16T12:55:42.095Z,36.36
2018-05-16T12:58:08.387Z,36.32
2018-05-16T13:00:34.494Z,36.36
2018-05-16T13:03:00.594Z,36.32
2018-05-16T13:05:26.846Z,36.17
2018-05-16T13:07:52.959Z,35.98
2018-05-16T13:10:19.076Z,35.90
2018-05-16T13:12:45.221Z,35.90
2018-05-16T13:15:11.834Z,35.71
2018-05-16T13:17:37.969Z,35.70
2018-05-16T13:20:04.096Z,35.50
2018-05-16T13:22:30.252Z,35.47
2018-05-16T13:24:56.368Z,35.65
2018-05-16T13:27:22.759Z,35.74
2018-05-16T13:29:49.193Z,35.80
2018-05-16T13:32:15.316Z,35.90
2018-05-16T13:34:41.423Z,35.99
2018-05-16T13:37:07.882Z,36.06
2018-05-16T13:39:33.981Z,36.19
2018-05-16T13:42:00.074Z,36.23
2018-05-16T13:44:26.468Z,36.27
2018-05-16T13:46:52.590Z,36.38
2018-05-16T13:49:18.741Z,36.29
2018-05-16T13:51:44.884Z,36.29
2018-05-16T13:54:11.047Z,36.54
2018-05-16T13:56:37.149Z,36.63
2018-05-16T13:59:03.361Z,36.62
2018-05-16T14:01:29.875Z,36.74
2018-05-16T14:03:56.231Z,36.98
2018-05-16T14:06:22.402Z,37.32
2018-05-16T14:08:48.551Z,37.61
2018-05-16T14:11:14.737Z,37.67
2018-05-16T14:13:40.890Z,37.79
2018-05-16T14:16:07.083Z,38.12
2018-05-16T14:18:33.330Z,38.11
2018-05-16T14:20:59.442Z,38.17
2018-05-16T14:23:25.578Z,38.03
2018-05-16T14:25:51.718Z,37.88
2018-05-16T14:28:17.895Z,37.77
2018-05-16T14:30:44.277Z,37.72
2018-05-16T14:33:10.393Z,37.66
2018-05-16T14:35:36.986Z,37.94
2018-05-16T14:38:03.090Z,38.38
2018-05-16T14:40:29.203Z,38.44
2018-05-16T14:42:55.607Z,38.60
2018-05-16T14:45:21.664Z,39.06
2018-05-16T14:47:47.926Z,38.93
2018-05-16T14:50:14.221Z,37.75
2018-05-16T14:52:40.363Z,37.27
2018-05-16T14:55:06.522Z,37.77
2018-05-16T14:57:32.692Z,39.13
2018-05-16T14:59:58.800Z,39.66
2018-05-16T15:02:24.967Z,39.76
2018-05-16T15:04:51.083Z,39.87
2018-05-16T15:07:17.192Z,39.86
2018-05-16T15:09:43.367Z,40.14
2018-05-16T15:12:10.960Z,40.25
2018-05-16T15:14:37.128Z,40.72
2018-05-16T15:17:03.201Z,40.66
2018-05-16T15:19:29.470Z,40.83
2018-05-16T15:21:55.578Z,41.16
2018-05-16T15:24:21.699Z,41.41
2018-05-16T15:26:48.055Z,41.58
2018-05-16T15:29:14.218Z,41.71
2018-05-16T15:31:40.333Z,41.85
2018-05-16T15:34:06.566Z,41.92
2018-05-16T15:36:32.683Z,41.97
2018-05-16T15:38:59.127Z,41.86
2018-05-16T15:41:25.255Z,42.07
2018-05-16T15:43:51.364Z,42.00
2018-05-16T15:46:17.522Z,41.78
2018-05-16T15:48:43.625Z,41.66
2018-05-16T15:51:09.811Z,41.66
2018-05-16T15:53:36.092Z,41.67
2018-05-16T15:56:02.241Z,41.62
2018-05-16T15:58:28.370Z,41.66
2018-05-16T16:00:54.744Z,41.76
2018-05-16T16:03:20.885Z,41.80
2018-05-16T16:05:47.022Z,41.85
2018-05-16T16:08:13.257Z,41.92
2018-05-16T16:10:39.431Z,41.95
2018-05-16T16:13:05.965Z,42.00
2018-05-16T16:15:32.078Z,42.01
2018-05-16T16:17:58.231Z,42.03
2018-05-16T16:20:24.381Z,42.06
2018-05-16T16:22:51.404Z,42.08
2018-05-16T16:25:17.776Z,42.09
2018-05-16T16:27:44.042Z,42.14
2018-05-16T16:30:10.157Z,42.17
2018-05-16T16:32:36.266Z,42.25
2018-05-16T16:35:02.420Z,42.25
2018-05-16T16:37:28.539Z,42.31
2018-05-16T16:39:54.689Z,42.71
2018-05-16T16:42:21.073Z,42.55
2018-05-16T16:44:47.374Z,42.27
2018-05-16T16:47:13.430Z,42.15
2018-05-16T16:49:39.577Z,42.14
2018-05-16T16:52:05.732Z,42.18
2018-05-16T16:54:31.878Z,42.31
2018-05-16T16:56:58.017Z,42.35
2018-05-16T16:59:24.366Z,42.37
2018-05-16T17:01:50.506Z,42.42
2018-05-16T17:04:16.609Z,42.46
2018-05-16T17:06:42.760Z,42.45
2018-05-16T17:09:08.866Z,42.50
2018-05-16T17:11:35.014Z,42.51
2018-05-16T17:14:01.407Z,42.50
2018-05-16T17:16:27.685Z,42.53
2018-05-16T17:18:54.122Z,42.54
2018-05-16T17:21:20.910Z,42.53
2018-05-16T17:23:47.022Z,42.50
2018-05-16T17:26:13.148Z,42.47
2018-05-16T17:28:39.277Z,42.45
2018-05-16T17:31:05.394Z,42.46
2018-05-16T17:33:31.530Z,42.47
2018-05-16T17:35:57.666Z,42.50
2018-05-16T17:38:24.839Z,42.51
2018-05-16T17:40:50.965Z,42.56
2018-05-16T17:43:17.083Z,42.55
2018-05-16T17:45:43.218Z,42.60
2018-05-16T17:48:09.338Z,42.64
2018-05-16T17:50:35.484Z,42.70
2018-05-16T17:53:01.633Z,42.69
2018-05-16T17:55:27.741Z,42.77
2018-05-16T17:57:54.157Z,42.79
2018-05-16T18:00:20.291Z,42.88
2018-05-16T18:02:46.395Z,42.91
2018-05-16T18:05:12.549Z,43.00
2018-05-16T18:07:38.702Z,43.09
2018-05-16T18:10:05.261Z,43.14
2018-05-16T18:12:31.369Z,43.15
2018-05-16T18:15:20.941Z,43.22
2018-05-16T18:17:47.053Z,43.26
2018-05-16T18:20:13.293Z,43.30
2018-05-16T18:22:39.429Z,43.35
2018-05-16T18:25:05.570Z,42.69
2018-05-16T18:27:31.697Z,44.69
2018-05-16T18:29:57.903Z,45.90
2018-05-16T18:32:24.270Z,46.79
2018-05-16T18:34:50.374Z,47.85
2018-05-16T18:37:17.015Z,48.42
2018-05-16T18:39:43.246Z,49.18
2018-05-16T18:42:09.353Z,49.67
2018-05-16T18:44:35.656Z,49.33
2018-05-16T18:47:01.773Z,49.14
2018-05-16T18:49:28.140Z,49.15
2018-05-16T18:51:54.416Z,49.44
2018-05-16T18:54:20.579Z,50.19
2018-05-16T18:56:46.779Z,50.71
2018-05-16T18:59:13.107Z,50.50
2018-05-16T19:01:39.457Z,50.50
2018-05-16T19:04:06.291Z,50.93
2018-05-16T19:06:32.493Z,51.00
2018-05-16T19:08:58.674Z,51.63
2018-05-16T19:11:24.845Z,50.82
2018-05-16T19:13:51.016Z,49.85
2018-05-16T19:16:17.235Z,49.17
2018-05-16T19:18:43.354Z,48.74
2018-05-16T19:21:09.615Z,48.36
2018-05-16T19:23:35.973Z,48.11
2018-05-16T19:26:02.125Z,48.00
2018-05-16T19:28:28.270Z,47.81
2018-05-16T19:30:54.399Z,47.67
2018-05-16T19:33:20.644Z,47.59
2018-05-16T19:35:46.773Z,47.49
2018-05-16T19:38:12.906Z,47.31
2018-05-16T19:40:39.402Z,47.19
2018-05-16T19:43:05.494Z,47.09
2018-05-16T19:45:32.081Z,47.00
2018-05-16T19:47:58.190Z,46.96
2018-05-16T19:50:24.317Z,46.90
2018-05-16T19:52:50.833Z,46.85
2018-05-16T19:55:16.893Z,46.79
2018-05-16T19:57:43.018Z,46.95
2018-05-16T20:00:09.176Z,47.14
2018-05-16T20:02:35.517Z,47.13
2018-05-16T20:05:01.667Z,46.97
2018-05-16T20:07:27.891Z,46.94
2018-05-16T20:09:54.022Z,46.79
2018-05-16T20:12:20.157Z,46.58
2018-05-16T20:14:46.445Z,46.46
2018-05-16T20:17:12.578Z,46.75
2018-05-16T20:19:38.682Z,46.79
2018-05-16T20:22:04.815Z,46.84
2018-05-16T20:24:30.943Z,46.87
2018-05-16T20:26:57.132Z,46.91
2018-05-16T20:29:23.408Z,46.63
2018-05-16T20:31:49.496Z,46.73
2018-05-16T20:34:15.769Z,46.55
2018-05-16T20:36:42.029Z,46.51
2018-05-16T20:39:08.238Z,46.37
2018-05-16T20:41:34.348Z,46.25
2018-05-16T20:44:00.492Z,46.13
2018-05-16T20:46:26.598Z,46.12
2018-05-16T20:48:53.228Z,46.02
2018-05-16T20:51:19.312Z,45.97
2018-05-16T20:53:45.420Z,45.90
2018-05-16T20:56:11.541Z,45.94
2018-05-16T20:58:37.683Z,45.83
2018-05-16T21:01:03.801Z,45.65
2018-05-16T21:03:30.350Z,45.61
2018-05-16T21:05:56.786Z,45.61
2018-05-16T21:08:23.215Z,45.54
2018-05-16T21:10:49.308Z,45.56
2018-05-16T21:13:15.433Z,45.49
2018-05-16T21:15:41.550Z,45.46
2018-05-16T21:18:07.713Z,45.19
2018-05-16T21:20:33.845Z,45.02
2018-05-16T21:22:59.969Z,45.20
2018-05-16T21:25:26.076Z,45.25
2018-05-16T21:27:52.248Z,45.25
2018-05-16T21:30:18.386Z,45.34
2018-05-16T21:32:44.489Z,45.36
2018-05-16T21:35:10.723Z,45.34
2018-05-16T21:37:36.836Z,45.38
2018-05-16T21:40:02.943Z,45.43
2018-05-16T21:42:29.116Z,45.26
2018-05-16T21:44:55.229Z,45.31
2018-05-16T21:47:21.339Z,45.29
2018-05-16T21:49:47.589Z,45.29
2018-05-16T21:52:13.703Z,45.30
2018-05-16T21:54:39.818Z,45.36
2018-05-16T21:57:05.950Z,45.38
2018-05-16T21:59:32.370Z,45.42
2018-05-16T22:01:58.522Z,45.44
2018-05-16T22:04:24.625Z,45.40
2018-05-16T22:06:51.164Z,45.64
2018-05-16T22:09:17.273Z,45.53
2018-05-16T22:11:43.367Z,45.52
2018-05-16T22:14:09.497Z,45.55
2018-05-16T22:16:35.644Z,45.51
2018-05-16T22:19:01.846Z,45.55
2018-05-16T22:21:28.051Z,45.54
2018-05-16T22:23:54.446Z,45.64
2018-05-16T22:26:20.882Z,45.58
2018-05-16T22:28:46.997Z,45.59
2018-05-16T22:31:19.233Z,45.22
2018-05-16T22:33:51.449Z,45.08
2018-05-16T22:36:23.830Z,45.05
2018-05-16T22:38:55.970Z,44.94
2018-05-16T22:41:28.051Z,45.06
2018-05-16T22:44:00.178Z,44.97
2018-05-16T22:46:26.294Z,45.00
2018-05-16T22:48:52.449Z,45.02
2018-05-16T22:51:18.555Z,44.98
2018-05-16T22:53:44.673Z,44.94
2018-05-16T22:56:11.379Z,45.16
2018-05-16T22:58:37.481Z,45.16
2018-05-16T23:01:03.576Z,45.36
2018-05-16T23:03:30.129Z,45.19
2018-05-16T23:05:56.222Z,44.96
2018-05-16T23:08:22.325Z,44.92
2018-05-16T23:10:48.561Z,44.83
2018-05-16T23:13:14.653Z,44.86
2018-05-16T23:15:40.810Z,44.81
2018-05-16T23:18:07.460Z,44.86
2018-05-16T23:20:33.598Z,44.97
2018-05-16T23:22:59.706Z,44.94
2018-05-16T23:25:25.922Z,44.87
2018-05-16T23:27:52.012Z,44.77
2018-05-16T23:30:18.146Z,44.74
2018-05-16T23:32:44.252Z,44.63
2018-05-16T23:35:10.431Z,44.73
2018-05-16T23:37:36.528Z,44.75
2018-05-16T23:40:02.634Z,44.69
2018-05-16T23:42:29.117Z,44.72
2018-05-16T23:44:55.540Z,44.55
2018-05-16T23:47:21.667Z,44.62
2018-05-16T23:49:48.193Z,44.50
2018-05-16T23:52:14.302Z,44.49
2018-05-16T23:54:40.412Z,44.47
2018-05-16T23:57:06.547Z,44.32
2018-05-16T23:59:33.019Z,44.40
